Dai25myoujinmaru — JL6201 — position and weather

sailwx.info

Track history (hours):
 
Tides and Currents Weather Stations Pressure Air Temp Water Temp Dewpoint Dewpoint Depression Visibility Wind Speed Wind Dir Waves Ship Positions

Dai25myoujinmaru

Last reported at 2015-May-15 21:31 UTC. Time now 2015-May-27 09:54 UTC.
Position N 34°32' E 138°35'.
Warning: this ship's position is 11 days out of date.

Length 88 m; draft 5.3 m.

Type: Tanker. MMSI: 431500272.

Date/timePositionNaut miles runAvg speedWind from/ knotsBaromVisibWave heightAir tempDewpointWater temp
2015-May-15 21:31N 34°32' E 138°35'5911.7
2015-May-15 16:28N 34°46' E 139°45'1712.5
2015-May-15 15:07N 34°53' E 140°04'911.7
2015-May-15 14:22N 34°57' E 140°13'4410.8
2015-May-15 10:18N 35°30' E 140°49'1910.2
2015-May-15 08:25N 35°48' E 140°56'2612.2
2015-May-15 06:18N 36°13' E 140°46'1112.1
2015-May-15 05:25N 36°23' E 140°42'6 0.8
2015-May-14 21:33N 36°28' E 140°38'0 0.0
2015-May-14 20:19N 36°28' E 140°38'0 0.0
2015-May-14 16:30N 36°28' E 140°38'31 2.2
2015-May-14 02:31N 35°57' E 140°42'3 0.7
2015-May-13 22:18N 36°00' E 140°42'0 0.1
2015-May-13 21:24N 36°00' E 140°42'0 0.0
2015-May-13 19:30N 36°00' E 140°42'0 0.0
2015-May-13 18:30N 36°00' E 140°42'0 0.0
2015-May-13 17:24N 36°00' E 140°42'0 0.1
2015-May-13 16:30N 36°00' E 140°42'0 0.0
2015-May-13 15:24N 36°00' E 140°42'0 0.0
2015-May-13 14:24N 36°00' E 140°42'0 0.0
2015-May-13 13:33N 36°00' E 140°42'0 0.0
2015-May-13 12:24N 36°00' E 140°42'0 0.1
2015-May-13 11:24N 36°00' E 140°42'0 0.0
2015-May-13 10:14N 36°00' E 140°42'0 0.0
2015-May-13 09:33N 36°00' E 140°42'0 0.0
2015-May-13 08:32N 36°00' E 140°42'5 4.1
2015-May-13 07:13N 36°06' E 140°42'23 0.5
2015-May-11 12:27N 36°28' E 140°38'34 2.7
2015-May-11 00:03N 35°55' E 140°41'0 0.0
2015-May-10 23:33N 35°55' E 140°41'5 5.1
2015-May-10 22:33N 35°59' E 140°43'1 0.1
2015-May-10 17:27N 36°00' E 140°43'0 0.0
2015-May-10 14:30N 36°00' E 140°43'0 0.0
2015-May-10 13:24N 36°00' E 140°43'0 0.0
2015-May-10 12:24N 36°00' E 140°43'0 0.0
2015-May-10 09:06N 36°00' E 140°43'0 0.0
2015-May-10 08:18N 36°00' E 140°43'0 0.0
2015-May-10 06:18N 36°00' E 140°43'0 0.0
2015-May-10 05:27N 36°00' E 140°43'0 0.1
2015-May-10 04:30N 36°00' E 140°43'0 0.0
2015-May-09 22:12N 36°00' E 140°43'0 0.1
2015-May-09 21:30N 36°00' E 140°43'0 0.0
2015-May-09 20:30N 36°00' E 140°43'0 0.0
2015-May-09 19:24N 36°00' E 140°43'0 0.0
2015-May-09 16:18N 36°00' E 140°43'1 1.5
2015-May-09 15:29N 35°59' E 140°44'1212.4
2015-May-09 14:32N 35°50' E 140°52'1311.7
2015-May-09 13:25N 35°37' E 140°55'1213.3
2015-May-09 12:31N 35°27' E 140°46'1614.1
2015-May-09 11:21N 35°15' E 140°33'2613.5
2015-May-09 09:26N 34°58' E 140°09'  
Track history (hours):
 
Tides and Currents Weather Stations Pressure Air Temp Water Temp Dewpoint Dewpoint Depression Visibility Wind Speed Wind Dir Waves Ship Positions

Dai25myoujinmaru

Last reported at 2015-May-15 21:31 UTC. Time now 2015-May-27 09:54 UTC.
Position N 34°32' E 138°35'.
Warning: this ship's position is 11 days out of date.

Length 88 m; draft 5.3 m.

Type: Tanker. MMSI: 431500272.

Date/timePositionNaut miles runAvg speedWind from/ knotsBaromVisibWave heightAir tempDewpointWater temp
2015-May-15 21:31N 34°32' E 138°35'5911.7
2015-May-15 16:28N 34°46' E 139°45'1712.5
2015-May-15 15:07N 34°53' E 140°04'911.7
2015-May-15 14:22N 34°57' E 140°13'4410.8
2015-May-15 10:18N 35°30' E 140°49'1910.2
2015-May-15 08:25N 35°48' E 140°56'2612.2
2015-May-15 06:18N 36°13' E 140°46'1112.1
2015-May-15 05:25N 36°23' E 140°42'6 0.8
2015-May-14 21:33N 36°28' E 140°38'0 0.0
2015-May-14 20:19N 36°28' E 140°38'0 0.0
2015-May-14 16:30N 36°28' E 140°38'31 2.2
2015-May-14 02:31N 35°57' E 140°42'3 0.7
2015-May-13 22:18N 36°00' E 140°42'0 0.1
2015-May-13 21:24N 36°00' E 140°42'0 0.0
2015-May-13 19:30N 36°00' E 140°42'0 0.0
2015-May-13 18:30N 36°00' E 140°42'0 0.0
2015-May-13 17:24N 36°00' E 140°42'0 0.1
2015-May-13 16:30N 36°00' E 140°42'0 0.0
2015-May-13 15:24N 36°00' E 140°42'0 0.0
2015-May-13 14:24N 36°00' E 140°42'0 0.0
2015-May-13 13:33N 36°00' E 140°42'0 0.0
2015-May-13 12:24N 36°00' E 140°42'0 0.1
2015-May-13 11:24N 36°00' E 140°42'0 0.0
2015-May-13 10:14N 36°00' E 140°42'0 0.0
2015-May-13 09:33N 36°00' E 140°42'0 0.0
2015-May-13 08:32N 36°00' E 140°42'5 4.1
2015-May-13 07:13N 36°06' E 140°42'23 0.5
2015-May-11 12:27N 36°28' E 140°38'34 2.7
2015-May-11 00:03N 35°55' E 140°41'0 0.0
2015-May-10 23:33N 35°55' E 140°41'5 5.1
2015-May-10 22:33N 35°59' E 140°43'1 0.1
2015-May-10 17:27N 36°00' E 140°43'0 0.0
2015-May-10 14:30N 36°00' E 140°43'0 0.0
2015-May-10 13:24N 36°00' E 140°43'0 0.0
2015-May-10 12:24N 36°00' E 140°43'0 0.0
2015-May-10 09:06N 36°00' E 140°43'0 0.0
2015-May-10 08:18N 36°00' E 140°43'0 0.0
2015-May-10 06:18N 36°00' E 140°43'0 0.0
2015-May-10 05:27N 36°00' E 140°43'0 0.1
2015-May-10 04:30N 36°00' E 140°43'0 0.0
2015-May-09 22:12N 36°00' E 140°43'0 0.1
2015-May-09 21:30N 36°00' E 140°43'0 0.0
2015-May-09 20:30N 36°00' E 140°43'0 0.0
2015-May-09 19:24N 36°00' E 140°43'0 0.0
2015-May-09 16:18N 36°00' E 140°43'1 1.5
2015-May-09 15:29N 35°59' E 140°44'1212.4
2015-May-09 14:32N 35°50' E 140°52'1311.7
2015-May-09 13:25N 35°37' E 140°55'1213.3
2015-May-09 12:31N 35°27' E 140°46'1614.1
2015-May-09 11:21N 35°15' E 140°33'2613.5
2015-May-09 09:26N 34°58' E 140°09'  

Dump ship's entire track history